Time;durP1;ratioP1;P1;durP2;ratioP2;P2;SDS_P1;SDS_P2;PMS_P1;PMS_P2;Temp;Humidity;BMP_temperature;BMP_pressure;BME280_temperature;BME280_humidity;BME280_pressure;Samples;Min_cycle;Max_cycle;Signal;HPM_P1;HPM_P2
2023/09/26 00:00:21;;;;;;;;;3.75;3.75;;;;;22.85;100.00;101443.97;2114939;27;46663;-61
2023/09/26 00:01:28;;;;;;;;;3.40;2.80;;;;;22.90;100.00;101447.28;2093674;28;45412;-61
2023/09/26 00:02:29;;;;;;;;;4.40;4.40;;;;;22.90;100.00;101447.28;2097790;27;46587;-61
2023/09/26 00:03:29;;;;;;;;;5.50;5.50;;;;;22.91;100.00;101443.59;2113303;27;46821;-61
2023/09/26 00:04:30;;;;;;;;;6.00;6.00;;;;;22.91;100.00;101443.59;2113651;27;46794;-60
2023/09/26 00:05:32;;;;;;;;;6.00;5.25;;;;;22.91;100.00;101449.03;2114738;27;46728;-60
2023/09/26 00:06:32;;;;;;;;;7.80;7.80;;;;;22.93;100.00;101440.81;2115054;27;46462;-60
2023/09/26 00:07:32;;;;;;;;;7.00;7.00;;;;;22.93;100.00;101446.22;2111419;27;46615;-60
2023/09/26 00:08:33;;;;;;;;;6.00;6.00;;;;;22.93;100.00;101447.09;2114890;27;45914;-60
2023/09/26 00:09:35;;;;;;;;;6.75;5.75;;;;;22.93;100.00;101444.38;2114934;27;46402;-61
2023/09/26 00:10:35;;;;;;;;;10.00;7.60;;;;;22.95;100.00;101442.44;2114774;27;46693;-60
2023/09/26 00:11:36;;;;;;;;;5.00;5.00;;;;;22.94;100.00;101447.97;2114660;27;46707;-60
2023/09/26 00:12:37;;;;;;;;;7.00;7.00;;;;;22.94;100.00;101439.84;2113020;27;46191;-60
2023/09/26 00:13:37;;;;;;;;;5.40;3.00;;;;;22.93;100.00;101441.66;2114749;27;46527;-59
2023/09/26 00:14:38;;;;;;;;;6.50;6.50;;;;;22.94;100.00;101443.41;2114644;27;46211;-60
2023/09/26 00:15:38;;;;;;;;;5.75;5.75;;;;;22.94;100.00;101439.84;2112929;27;46215;-60
2023/09/26 00:16:39;;;;;;;;;8.75;8.75;;;;;22.95;100.00;101444.28;2114623;27;46647;-61
2023/09/26 00:17:39;;;;;;;;;7.25;5.50;;;;;22.95;100.00;101442.44;2114891;27;46330;-61
2023/09/26 00:18:42;;;;;;;;;4.00;4.00;;;;;22.93;100.00;101435.38;2112277;27;45982;-61
2023/09/26 00:19:42;;;;;;;;;6.60;6.60;;;;;22.93;100.00;101435.38;2114531;27;45997;-61
2023/09/26 00:20:44;;;;;;;;;7.00;6.50;;;;;22.90;100.00;101437.31;2105370;27;46648;-60
2023/09/26 00:21:44;;;;;;;;;8.20;6.20;;;;;22.90;100.00;101437.31;2106011;27;46871;-61
2023/09/26 00:22:45;;;;;;;;;8.00;6.75;;;;;22.90;100.00;101433.75;2114679;27;46399;-61
2023/09/26 00:23:45;;;;;;;;;7.00;6.67;;;;;22.89;100.00;101434.72;2105058;28;45521;-61
2023/09/26 00:24:46;;;;;;;;;6.50;6.00;;;;;22.89;100.00;101435.59;2097982;28;46363;-58
2023/09/26 00:25:46;;;;;;;;;5.25;5.25;;;;;22.88;100.00;101433.84;2099841;28;46641;-60
2023/09/26 00:26:46;;;;;;;;;6.33;6.33;;;;;22.84;100.00;101432.28;2105203;27;46937;-60
2023/09/26 00:27:47;;;;;;;;;5.67;5.67;;;;;22.84;100.00;101434.97;2105480;28;46791;-60
2023/09/26 00:28:47;;;;;;;;;5.33;5.00;;;;;22.84;100.00;101434.13;2105442;27;46315;-60
2023/09/26 00:29:48;;;;;;;;;6.50;6.50;;;;;22.84;100.00;101426.84;2114859;27;45691;-60
2023/09/26 00:30:48;;;;;;;;;5.25;4.75;;;;;22.86;100.00;101429.47;2114373;27;46506;-60
2023/09/26 00:31:51;;;;;;;;;3.25;3.25;;;;;22.87;100.00;101431.25;2115330;27;46806;-60
2023/09/26 00:32:51;;;;;;;;;4.00;4.00;;;;;22.85;100.00;101428.59;2115085;27;46765;-60
2023/09/26 00:33:53;;;;;;;;;5.75;5.50;;;;;22.86;100.00;101430.34;2114698;27;46712;-59
2023/09/26 00:34:53;;;;;;;;;4.60;4.60;;;;;22.86;100.00;101427.63;2114075;27;46718;-60
2023/09/26 00:35:53;;;;;;;;;3.75;3.75;;;;;22.86;100.00;101421.34;2113787;27;45993;-59
2023/09/26 00:36:55;;;;;;;;;4.00;4.00;;;;;22.87;100.00;101425.81;2111946;27;46430;-58
2023/09/26 00:37:55;;;;;;;;;4.60;4.20;;;;;22.87;100.00;101433.94;2114118;27;46659;-58
2023/09/26 00:38:55;;;;;;;;;3.00;3.00;;;;;22.87;100.00;101426.69;2114112;27;46540;-58
2023/09/26 00:39:56;;;;;;;;;5.00;4.75;;;;;22.86;100.00;101426.75;2111376;27;46602;-59
2023/09/26 00:40:56;;;;;;;;;3.00;3.00;;;;;22.89;100.00;101429.31;2114567;27;46669;-58
2023/09/26 00:41:56;;;;;;;;;2.00;2.00;;;;;22.89;100.00;101426.59;2115641;27;46651;-60
2023/09/26 00:43:00;;;;;;;;;4.75;4.75;;;;;22.89;100.00;101430.16;2105523;27;46290;-60
2023/09/26 00:44:00;;;;;;;;;2.25;2.25;;;;;22.87;100.00;101424.00;2105424;28;46334;-59
2023/09/26 00:45:00;;;;;;;;;3.00;3.00;;;;;22.86;100.00;101424.91;2113634;27;46281;-60
2023/09/26 00:46:04;;;;;;;;;5.25;4.00;;;;;22.85;100.00;101428.59;2110967;27;46136;-60
2023/09/26 00:47:05;;;;;;;;;3.00;3.00;;;;;22.86;100.00;101426.75;2113595;27;46575;-61
2023/09/26 00:48:06;;;;;;;;;6.60;3.00;;;;;22.86;100.00;101434.88;2114266;27;46774;-61
2023/09/26 00:49:07;;;;;;;;;6.00;5.00;;;;;22.85;100.00;101427.72;2114862;27;46292;-60
2023/09/26 00:50:12;;;;;;;;;3.80;3.80;;;;;22.87;100.00;101429.41;2114110;27;46487;-60
2023/09/26 00:51:13;;;;;;;;;3.00;3.00;;;;;22.87;100.00;101429.41;2114076;27;46287;-59
2023/09/26 00:52:13;;;;;;;;;4.67;4.00;;;;;22.87;100.00;101428.53;2111030;27;46543;-60
2023/09/26 00:53:14;;;;;;;;;3.00;3.00;;;;;22.87;100.00;101424.00;2114362;27;46486;-60
2023/09/26 00:54:16;;;;;;;;;4.00;3.50;;;;;22.83;100.00;101418.84;2114485;27;46229;-61
2023/09/26 00:55:18;;;;;;;;;4.40;4.40;;;;;22.84;100.00;101432.28;2114513;27;46375;-61
2023/09/26 00:56:19;;;;;;;;;4.20;4.20;;;;;22.83;100.00;101421.53;2114519;27;46422;-60
2023/09/26 00:57:19;;;;;;;;;3.00;2.33;;;;;22.83;100.00;101424.25;2114941;27;47033;-61
2023/09/26 00:58:23;;;;;;;;;5.60;5.60;;;;;22.84;100.00;101426.00;2113369;27;46331;-61
2023/09/26 00:59:24;;;;;;;;;4.40;4.40;;;;;22.84;100.00;101426.00;2114429;27;46902;-61
2023/09/26 01:00:26;;;;;;;;;4.20;3.40;;;;;22.84;100.00;101421.44;2114194;27;46359;-62
2023/09/26 01:01:30;;;;;;;;;4.60;4.60;;;;;22.85;100.00;101430.44;2114475;27;46799;-61
2023/09/26 01:02:30;;;;;;;;;5.60;4.80;;;;;22.83;100.00;101427.81;2114372;27;46395;-61
2023/09/26 01:03:33;;;;;;;;;4.75;3.75;;;;;22.83;100.00;101430.53;2112588;27;46832;-61
2023/09/26 01:04:33;;;;;;;;;4.00;4.00;;;;;22.84;100.00;101434.13;2121817;27;47292;-61
2023/09/26 01:05:35;;;;;;;;;3.75;3.75;;;;;22.84;100.00;101426.00;2117457;27;46478;-61
2023/09/26 01:06:36;;;;;;;;;5.20;5.00;;;;;22.83;100.00;101426.97;2115002;27;47087;-61
2023/09/26 01:07:38;;;;;;;;;4.40;3.40;;;;;22.83;100.00;101432.38;2114022;27;46586;-62
2023/09/26 01:08:39;;;;;;;;;4.00;3.20;;;;;22.82;100.00;101428.75;2110023;27;46102;-62
2023/09/26 01:09:40;;;;;;;;;4.20;4.20;;;;;22.83;100.00;101426.97;2114463;27;46407;-61
2023/09/26 01:10:41;;;;;;;;;5.50;5.00;;;;;22.82;100.00;101428.75;2113757;27;45778;-61
2023/09/26 01:11:42;;;;;;;;;3.33;3.33;;;;;22.83;100.00;101426.97;2108409;27;46585;-61
2023/09/26 01:12:43;;;;;;;;;4.60;4.60;;;;;22.81;100.00;101420.75;2111576;27;46454;-60
2023/09/26 01:13:45;;;;;;;;;8.50;6.75;;;;;22.80;100.00;101419.00;2095894;28;46533;-61
2023/09/26 01:14:45;;;;;;;;;4.00;4.00;;;;;22.79;100.00;101417.25;2096195;27;46428;-61
2023/09/26 01:15:46;;;;;;;;;6.00;6.00;;;;;22.77;100.00;101416.50;2107969;27;46529;-61
2023/09/26 01:16:53;;;;;;;;;5.75;5.75;;;;;22.76;100.00;101409.34;2104113;28;45102;-60
2023/09/26 01:17:54;;;;;;;;;6.40;4.80;;;;;22.77;100.00;101416.50;2105852;27;46315;-60
2023/09/26 01:18:54;;;;;;;;;5.50;5.50;;;;;22.77;100.00;101411.09;2114097;27;46435;-60
2023/09/26 01:19:55;;;;;;;;;3.75;3.75;;;;;22.79;100.00;101409.16;2114517;27;45190;-61
2023/09/26 01:20:55;;;;;;;;;7.50;5.00;;;;;22.80;100.00;101413.59;2113418;27;46248;-61
2023/09/26 01:21:55;;;;;;;;;7.00;6.00;;;;;22.81;100.00;101408.06;2105038;28;46469;-61
2023/09/26 01:22:56;;;;;;;;;4.00;4.00;;;;;22.81;100.00;101402.66;2105002;27;45774;-60
2023/09/26 01:23:57;;;;;;;;;5.00;3.00;;;;;22.79;100.00;101403.72;2112135;27;46864;-60
2023/09/26 01:24:59;;;;;;;;;4.67;4.00;;;;;22.81;100.00;101409.91;2113672;27;46831;-60
2023/09/26 01:25:59;;;;;;;;;4.40;4.40;;;;;22.80;100.00;101406.34;2114207;27;46678;-61
2023/09/26 01:27:00;;;;;;;;;1.33;1.33;;;;;22.80;100.00;101405.47;2114950;27;46306;-61
2023/09/26 01:28:06;;;;;;;;;3.75;3.75;;;;;22.80;100.00;101409.03;2114148;27;46855;-61
2023/09/26 01:29:07;;;;;;;;;2.40;2.00;;;;;22.78;100.00;101410.13;2114404;27;47349;-61
2023/09/26 01:30:08;;;;;;;;;1.75;1.75;;;;;22.79;100.00;101409.16;2103111;27;46391;-61
2023/09/26 01:31:09;;;;;;;;;4.20;4.20;;;;;22.80;100.00;101410.88;2102687;27;46292;-60
2023/09/26 01:32:09;;;;;;;;;4.75;3.00;;;;;22.78;100.00;101408.28;2114279;27;45597;-58
2023/09/26 01:33:16;;;;;;;;;4.75;2.25;;;;;22.79;100.00;101409.16;2114023;27;46754;-59
2023/09/26 01:34:17;;;;;;;;;4.20;2.60;;;;;22.77;100.00;101406.53;2113778;27;46497;-60
2023/09/26 01:35:17;;;;;;;;;3.50;3.50;;;;;22.78;100.00;101408.28;2114281;27;46335;-59
2023/09/26 01:36:18;;;;;;;;;3.50;3.00;;;;;22.75;100.00;101404.91;2114104;27;46320;-60
2023/09/26 01:37:20;;;;;;;;;3.50;3.00;;;;;22.77;100.00;101411.09;2114043;27;46908;-60
2023/09/26 01:38:23;;;;;;;;;3.00;3.00;;;;;22.75;100.00;101407.59;2114059;27;46797;-60
2023/09/26 01:39:23;;;;;;;;;3.60;3.60;;;;;22.76;100.00;101404.81;2114096;27;47202;-60
2023/09/26 01:40:24;;;;;;;;;2.75;2.75;;;;;22.75;100.00;101408.47;2114732;27;46664;-60
2023/09/26 01:41:26;;;;;;;;;3.80;3.80;;;;;22.77;100.00;101406.53;2112683;27;46553;-60
2023/09/26 01:42:27;;;;;;;;;0.00;0.00;;;;;22.77;100.00;101401.13;2110497;27;46447;-60
2023/09/26 01:43:27;;;;;;;;;3.25;3.00;;;;;22.75;100.00;101400.34;2109901;27;46800;-59
2023/09/26 01:44:28;;;;;;;;;3.00;3.00;;;;;22.79;100.00;101403.72;2114046;27;46664;-58
2023/09/26 01:45:29;;;;;;;;;3.00;2.20;;;;;22.77;100.00;101402.97;2113647;27;46245;-59
2023/09/26 01:46:29;;;;;;;;;3.67;3.00;;;;;22.77;100.00;101394.84;2104064;28;46173;-58
2023/09/26 01:47:41;;;;;;;;;3.67;3.67;;;;;22.77;100.00;101393.00;2102999;28;46397;-58
2023/09/26 01:48:41;;;;;;;;;2.00;2.00;;;;;22.72;100.00;101389.69;2118559;27;46726;-57
2023/09/26 01:49:43;;;;;;;;;2.00;2.00;;;;;22.72;100.00;101387.00;2112908;27;45413;-59
2023/09/26 01:50:43;;;;;;;;;2.00;1.00;;;;;22.70;100.00;101379.94;2108396;27;46463;-59
2023/09/26 01:51:43;;;;;;;;;4.00;4.00;;;;;22.70;100.00;101374.53;2113660;27;46429;-58
2023/09/26 01:52:45;;;;;;;;;4.50;2.00;;;;;22.67;100.00;101383.72;2113801;27;46639;-59
2023/09/26 01:53:45;;;;;;;;;2.50;2.25;;;;;22.65;100.00;101372.13;2113898;27;47002;-59
2023/09/26 01:54:45;;;;;;;;;3.00;3.00;;;;;22.64;100.00;101369.50;2113472;27;46806;-60
2023/09/26 01:55:46;;;;;;;;;4.50;4.50;;;;;22.64;100.00;101374.94;2113220;27;46205;-60
2023/09/26 01:56:46;;;;;;;;;3.00;3.00;;;;;22.63;100.00;101367.78;2118849;27;45592;-60
2023/09/26 01:57:48;;;;;;;;;4.00;3.75;;;;;22.63;100.00;101382.16;2112827;27;46803;-59
2023/09/26 01:58:48;;;;;;;;;3.60;3.60;;;;;22.61;100.00;101374.16;2110412;27;46781;-59
2023/09/26 01:59:49;;;;;;;;;2.00;2.00;;;;;22.61;100.00;101378.66;2103364;28;46462;-60
2023/09/26 02:00:49;;;;;;;;;3.00;3.00;;;;;22.63;100.00;101382.16;2104811;28;46522;-60
2023/09/26 02:01:49;;;;;;;;;4.00;4.00;;;;;22.63;100.00;101378.59;2113918;27;46358;-60
2023/09/26 02:02:51;;;;;;;;;4.00;3.00;;;;;22.64;100.00;101380.34;2112947;27;46703;-60
2023/09/26 02:03:51;;;;;;;;;2.60;2.60;;;;;22.63;100.00;101381.31;2105119;28;46822;-60
2023/09/26 02:04:52;;;;;;;;;3.25;2.75;;;;;22.63;100.00;101386.72;2105017;28;46294;-60
2023/09/26 02:05:56;;;;;;;;;4.00;4.00;;;;;22.62;100.00;101391.25;2105337;27;46424;-60
2023/09/26 02:06:56;;;;;;;;;2.00;2.00;;;;;22.60;100.00;101394.03;2105725;27;48449;-60
2023/09/26 02:07:56;;;;;;;;;3.00;3.00;;;;;22.61;100.00;101394.91;2114295;27;46638;-60
2023/09/26 02:08:57;;;;;;;;;3.00;3.00;;;;;22.60;100.00;101399.44;2115631;27;46339;-60
2023/09/26 02:09:57;;;;;;;;;5.00;4.00;;;;;22.60;100.00;101395.84;2114207;27;46148;-60
2023/09/26 02:10:58;;;;;;;;;2.50;2.50;;;;;22.59;100.00;101399.53;2113742;27;46362;-60
2023/09/26 02:11:58;;;;;;;;;5.50;4.50;;;;;22.58;100.00;101401.38;2113240;27;46279;-60
2023/09/26 02:12:58;;;;;;;;;3.00;3.00;;;;;22.56;100.00;101397.88;2112866;27;46672;-60
2023/09/26 02:13:58;;;;;;;;;4.00;4.00;;;;;22.55;100.00;101404.25;2111554;27;47002;-59
2023/09/26 02:15:01;;;;;;;;;3.00;2.33;;;;;22.54;100.00;101394.41;2113895;27;46032;-59
2023/09/26 02:16:01;;;;;;;;;4.80;4.00;;;;;22.53;100.00;101399.91;2113844;27;46385;-60
2023/09/26 02:17:01;;;;;;;;;4.25;3.00;;;;;22.51;100.00;101399.16;2113735;27;46660;-60
2023/09/26 02:18:02;;;;;;;;;5.00;3.75;;;;;22.51;100.00;101394.59;2114225;27;45631;-59
2023/09/26 02:19:03;;;;;;;;;4.00;3.50;;;;;22.50;100.00;101392.00;2113649;27;45691;-59
2023/09/26 02:20:12;;;;;;;;;3.00;3.00;;;;;22.51;100.00;101397.31;2105823;27;46694;-60
2023/09/26 02:21:16;;;;;;;;;3.25;3.25;;;;;22.52;100.00;101390.94;2101950;28;46669;-61
2023/09/26 02:22:17;;;;;;;;;4.50;4.50;;;;;22.53;100.00;101397.22;2103912;27;46258;-60
2023/09/26 02:23:17;;;;;;;;;4.00;4.00;;;;;22.53;100.00;101389.97;2103936;28;46771;-60
2023/09/26 02:24:17;;;;;;;;;4.00;4.00;;;;;22.54;100.00;101389.00;2104822;27;46605;-60
2023/09/26 02:25:19;;;;;;;;;3.67;3.67;;;;;22.56;100.00;101391.63;2103921;28;46589;-60
2023/09/26 02:26:19;;;;;;;;;3.00;3.00;;;;;22.55;100.00;101384.47;2104388;28;46419;-60
2023/09/26 02:27:20;;;;;;;;;4.67;4.67;;;;;22.54;100.00;101388.13;2103919;28;46570;-61
2023/09/26 02:28:20;;;;;;;;;3.67;3.67;;;;;22.53;100.00;101383.69;2104453;28;46562;-60
2023/09/26 02:29:20;;;;;;;;;3.75;3.50;;;;;22.51;100.00;101380.22;2102348;28;46636;-60
2023/09/26 02:30:23;;;;;;;;;6.00;3.67;;;;;22.51;100.00;101381.09;2103217;28;46690;-61
2023/09/26 02:31:23;;;;;;;;;4.00;4.00;;;;;22.52;100.00;101385.53;2104068;28;46749;-60
2023/09/26 02:32:24;;;;;;;;;4.67;4.67;;;;;22.53;100.00;101381.00;2104242;28;46673;-58
2023/09/26 02:33:24;;;;;;;;;4.00;4.00;;;;;22.52;100.00;101377.41;2103864;28;46498;-59
2023/09/26 02:34:24;;;;;;;;;3.00;3.00;;;;;22.52;100.00;101382.81;2104484;28;46787;-58
2023/09/26 02:35:25;;;;;;;;;5.00;5.00;;;;;22.53;100.00;101381.84;2104365;28;46460;-59
2023/09/26 02:36:25;;;;;;;;;5.00;5.00;;;;;22.53;100.00;101381.84;2104180;28;46657;-59
2023/09/26 02:37:26;;;;;;;;;4.00;3.00;;;;;22.53;100.00;101381.84;2104054;28;46621;-57
2023/09/26 02:38:26;;;;;;;;;4.67;4.67;;;;;22.55;100.00;101382.63;2104454;28;46481;-59
2023/09/26 02:39:26;;;;;;;;;5.67;5.67;;;;;22.54;100.00;101383.59;2104279;28;46647;-59
2023/09/26 02:40:27;;;;;;;;;2.00;2.00;;;;;22.53;100.00;101378.28;2104087;28;46564;-59
2023/09/26 02:41:27;;;;;;;;;5.33;4.33;;;;;22.50;100.00;101376.63;2104244;28;46695;-59
2023/09/26 02:42:27;;;;;;;;;5.33;5.00;;;;;22.49;100.00;101383.00;2104469;28;46445;-59
2023/09/26 02:43:28;;;;;;;;;5.67;5.00;;;;;22.51;100.00;101378.38;2104154;28;46830;-60
2023/09/26 02:44:28;;;;;;;;;4.00;4.00;;;;;22.53;100.00;101379.16;2102309;28;46601;-59
2023/09/26 02:45:30;;;;;;;;;1.33;1.33;;;;;22.54;100.00;101383.59;2090619;28;46257;-59
2023/09/26 02:46:30;;;;;;;;;4.00;3.75;;;;;22.54;100.00;101380.88;2094953;28;46727;-58
2023/09/26 02:47:31;;;;;;;;;5.00;5.00;;;;;22.54;100.00;101374.59;2103823;28;46866;-58
2023/09/26 02:48:31;;;;;;;;;6.33;5.00;;;;;22.53;100.00;101375.56;2104547;28;46777;-58
2023/09/26 02:49:31;;;;;;;;;5.00;5.00;;;;;22.51;100.00;101375.69;2104505;28;46538;-60
2023/09/26 02:50:32;;;;;;;;;4.00;4.00;;;;;22.45;100.00;101375.16;2104712;28;47016;-59
2023/09/26 02:51:32;;;;;;;;;0.00;0.00;;;;;22.45;100.00;101369.75;2106490;27;46399;-58
2023/09/26 02:52:33;;;;;;;;;5.33;5.33;;;;;22.41;100.00;101363.66;2113601;27;46504;-59
2023/09/26 02:53:33;;;;;;;;;4.00;4.00;;;;;22.40;100.00;101366.47;2113915;27;46852;-59
2023/09/26 02:54:34;;;;;;;;;4.75;4.75;;;;;22.38;100.00;101366.56;2113364;27;46268;-60
2023/09/26 02:55:39;;;;;;;;;7.50;6.00;;;;;22.37;100.00;101354.00;2113802;27;46467;-59
2023/09/26 02:56:39;;;;;;;;;3.50;3.50;;;;;22.35;100.00;101357.75;2113589;27;46847;-58
2023/09/26 02:57:40;;;;;;;;;4.67;4.67;;;;;22.46;100.00;101350.72;2113697;27;46598;-58
2023/09/26 02:58:41;;;;;;;;;5.00;5.00;;;;;22.53;100.00;101346.69;2113594;27;46924;-59
2023/09/26 02:59:42;;;;;;;;;3.75;3.75;;;;;22.56;100.00;101343.78;2113602;27;46425;-59
2023/09/26 03:00:42;;;;;;;;;5.00;5.00;;;;;22.56;100.00;101341.09;2110966;27;46152;-60
2023/09/26 03:01:42;;;;;;;;;7.00;7.00;;;;;22.58;100.00;101341.84;2109259;27;46463;-60
2023/09/26 03:02:46;;;;;;;;;6.00;6.00;;;;;22.59;100.00;101342.72;2112246;27;46387;-59
2023/09/26 03:03:48;;;;;;;;;7.00;5.75;;;;;22.58;100.00;101346.41;2112586;27;46924;-58
2023/09/26 03:04:48;;;;;;;;;5.00;5.00;;;;;22.56;100.00;101337.50;2104786;28;46785;-59
2023/09/26 03:05:52;;;;;;;;;6.67;6.67;;;;;22.55;100.00;101341.19;2104243;27;46654;-60
2023/09/26 03:06:52;;;;;;;;;5.50;5.50;;;;;22.52;100.00;101342.25;2104418;27;46713;-59
2023/09/26 03:07:52;;;;;;;;;6.67;6.00;;;;;22.53;100.00;101337.72;2111767;27;45892;-60
2023/09/26 03:08:53;;;;;;;;;7.00;7.00;;;;;22.53;100.00;101343.97;2109589;27;46361;-59
2023/09/26 03:09:53;;;;;;;;;6.00;6.00;;;;;22.54;100.00;101344.84;2107520;27;46188;-59
2023/09/26 03:10:58;;;;;;;;;8.33;7.33;;;;;22.53;100.00;101340.41;2110162;27;46816;-59
2023/09/26 03:11:58;;;;;;;;;7.00;7.00;;;;;22.51;100.00;101348.63;2113219;27;46702;-59
2023/09/26 03:12:59;;;;;;;;;7.00;7.00;;;;;22.49;100.00;101345.16;2113577;27;46500;-58
2023/09/26 03:13:59;;;;;;;;;11.67;10.00;;;;;22.48;100.00;101346.09;2113256;27;45584;-61
2023/09/26 03:15:00;;;;;;;;;7.50;6.25;;;;;22.47;100.00;101347.06;2113523;27;46649;-61
2023/09/26 03:16:01;;;;;;;;;6.67;6.33;;;;;22.45;100.00;101351.69;2113552;27;46890;-58
2023/09/26 03:17:05;;;;;;;;;8.75;8.00;;;;;22.45;100.00;101348.13;2113194;27;46402;-60
2023/09/26 03:18:06;;;;;;;;;6.75;6.75;;;;;22.42;100.00;101349.19;2112146;27;45705;-60
2023/09/26 03:19:08;;;;;;;;;6.67;6.67;;;;;22.42;100.00;101349.19;2113554;27;46465;-60
2023/09/26 03:20:09;;;;;;;;;6.75;6.75;;;;;22.41;100.00;101343.88;2113675;27;46905;-60
2023/09/26 03:21:11;;;;;;;;;10.25;8.50;;;;;22.41;100.00;101343.88;2106784;27;46385;-59
2023/09/26 03:22:11;;;;;;;;;10.60;9.20;;;;;22.39;100.00;101338.56;2113769;27;46947;-59
2023/09/26 03:23:12;;;;;;;;;6.33;6.33;;;;;22.37;100.00;101339.63;2113246;27;46264;-60
2023/09/26 03:24:12;;;;;;;;;7.33;7.33;;;;;22.39;100.00;101340.38;2113065;27;46673;-59
2023/09/26 03:25:12;;;;;;;;;5.67;5.00;;;;;22.40;100.00;101342.13;2113343;27;47106;-60
2023/09/26 03:26:14;;;;;;;;;5.50;3.75;;;;;22.41;100.00;101351.97;2113347;27;46604;-60
2023/09/26 03:27:14;;;;;;;;;4.25;4.25;;;;;22.40;100.00;101345.69;2113325;27;46903;-60
2023/09/26 03:28:14;;;;;;;;;7.33;7.33;;;;;22.42;100.00;101353.72;2113592;27;46724;-60
2023/09/26 03:29:15;;;;;;;;;7.25;7.25;;;;;22.43;100.00;101358.16;2113487;27;46541;-59
2023/09/26 03:30:16;;;;;;;;;6.00;6.00;;;;;22.45;100.00;101350.81;2113521;27;46583;-59
2023/09/26 03:31:16;;;;;;;;;7.50;7.50;;;;;22.45;100.00;101348.13;2111457;27;46390;-60
2023/09/26 03:32:17;;;;;;;;;6.33;6.33;;;;;22.43;100.00;101352.75;2112863;27;46240;-59
2023/09/26 03:33:18;;;;;;;;;10.75;8.00;;;;;22.42;100.00;101346.47;2109423;27;46310;-60
2023/09/26 03:34:18;;;;;;;;;5.00;5.00;;;;;22.44;100.00;101355.34;2111816;27;46196;-60
2023/09/26 03:35:18;;;;;;;;;6.00;5.67;;;;;22.42;100.00;101348.31;2113501;27;46774;-60
2023/09/26 03:36:19;;;;;;;;;7.67;5.67;;;;;22.41;100.00;101347.44;2112933;27;46578;-60
2023/09/26 03:37:19;;;;;;;;;6.67;6.67;;;;;22.43;100.00;101344.63;2113455;27;46720;-60
2023/09/26 03:38:21;;;;;;;;;6.67;5.67;;;;;22.42;100.00;101348.31;2113293;27;46845;-60
2023/09/26 03:39:21;;;;;;;;;6.75;5.75;;;;;22.43;100.00;101339.22;2113497;27;46900;-60
2023/09/26 03:40:21;;;;;;;;;7.67;7.00;;;;;22.45;100.00;101340.00;2113180;27;45495;-60
2023/09/26 03:41:22;;;;;;;;;6.33;6.33;;;;;22.45;100.00;101342.72;2113649;27;46747;-61
2023/09/26 03:42:22;;;;;;;;;6.67;5.67;;;;;22.43;100.00;101348.22;2113166;27;46746;-60
2023/09/26 03:43:22;;;;;;;;;9.00;5.67;;;;;22.42;100.00;101345.59;2113220;27;46498;-59
2023/09/26 03:44:23;;;;;;;;;6.00;6.00;;;;;22.40;100.00;101342.13;2112998;27;46373;-60
2023/09/26 03:45:23;;;;;;;;;5.00;5.00;;;;;22.38;100.00;101344.94;2113180;27;46126;-60
2023/09/26 03:46:24;;;;;;;;;7.00;7.00;;;;;22.35;100.00;101346.94;2113369;27;46298;-60
2023/09/26 03:47:24;;;;;;;;;10.00;9.00;;;;;22.33;100.00;101350.59;2113769;27;45507;-59
2023/09/26 03:48:25;;;;;;;;;4.75;4.75;;;;;22.33;100.00;101341.63;2113429;27;46390;-59
2023/09/26 03:49:25;;;;;;;;;7.75;7.25;;;;;22.32;100.00;101348.00;2113221;27;46539;-60
2023/09/26 03:50:25;;;;;;;;;15.00;14.00;;;;;22.30;100.00;101345.38;2109080;27;46649;-59
2023/09/26 03:51:26;;;;;;;;;14.25;14.25;;;;;22.28;100.00;101352.72;2112074;27;46585;-60
2023/09/26 03:52:27;;;;;;;;;11.25;9.50;;;;;22.30;100.00;101352.63;2103064;28;46602;-60
2023/09/26 03:53:28;;;;;;;;;9.00;8.00;;;;;22.30;100.00;101352.63;2104006;27;46719;-60
2023/09/26 03:54:28;;;;;;;;;9.00;8.00;;;;;22.28;100.00;101351.84;2113483;27;46672;-60
2023/09/26 03:55:28;;;;;;;;;9.67;8.67;;;;;22.27;100.00;101353.69;2113384;27;46544;-61
2023/09/26 03:56:28;;;;;;;;;9.33;9.33;;;;;22.26;100.00;101348.38;2112939;27;46675;-61
2023/09/26 03:57:33;;;;;;;;;6.67;6.33;;;;;22.23;100.00;101351.25;2113108;27;46625;-61
2023/09/26 03:58:35;;;;;;;;;6.75;6.75;;;;;22.25;100.00;101354.75;2113758;27;46475;-59
2023/09/26 03:59:35;;;;;;;;;7.50;6.00;;;;;22.25;100.00;101341.22;2113214;27;46528;-60
2023/09/26 04:00:36;;;;;;;;;5.67;5.67;;;;;22.25;100.00;101341.22;2104755;28;46859;-58
2023/09/26 04:01:36;;;;;;;;;7.67;6.00;;;;;22.23;100.00;101337.72;2104267;28;47271;-60
2023/09/26 04:02:37;;;;;;;;;7.00;7.00;;;;;22.23;100.00;101340.44;2113103;27;46483;-60
2023/09/26 04:03:48;;;;;;;;;8.75;8.75;;;;;22.23;100.00;101335.03;2114715;27;46757;-59
2023/09/26 04:04:49;;;;;;;;;8.75;7.25;;;;;22.23;100.00;101335.94;2112798;27;46968;-59
2023/09/26 04:05:56;;;;;;;;;9.33;9.33;;;;;22.23;100.00;101332.31;2110097;27;46493;-59
2023/09/26 04:06:58;;;;;;;;;8.75;8.75;;;;;22.25;100.00;101335.81;2112709;27;46283;-59
2023/09/26 04:07:58;;;;;;;;;6.50;6.50;;;;;22.24;100.00;101328.69;2113536;27;46792;-58
2023/09/26 04:08:59;;;;;;;;;5.33;5.33;;;;;22.23;100.00;101335.03;2113074;27;46164;-59
2023/09/26 04:10:00;;;;;;;;;6.25;6.25;;;;;22.24;100.00;101331.38;2113333;27;46217;-59
2023/09/26 04:11:00;;;;;;;;;8.50;8.50;;;;;22.23;100.00;101322.41;2103647;28;46325;-60
2023/09/26 04:12:03;;;;;;;;;10.00;8.75;;;;;22.23;100.00;101324.19;2102923;28;47067;-60
2023/09/26 04:13:04;;;;;;;;;9.00;9.00;;;;;22.22;100.00;101320.63;2112127;27;46386;-60
2023/09/26 04:14:05;;;;;;;;;7.00;7.00;;;;;22.23;100.00;101321.50;2115964;27;45807;-59
2023/09/26 04:15:06;;;;;;;;;7.25;7.00;;;;;22.23;100.00;101313.38;2110464;27;46918;-60
2023/09/26 04:16:07;;;;;;;;;7.00;7.00;;;;;22.22;100.00;101317.94;2111094;27;46455;-60
2023/09/26 04:17:08;;;;;;;;;8.50;8.50;;;;;22.23;100.00;101316.09;2104258;27;47177;-61
2023/09/26 04:18:08;;;;;;;;;9.33;8.33;;;;;22.21;100.00;101320.72;2104854;27;46200;-60
2023/09/26 04:19:08;;;;;;;;;6.67;6.67;;;;;22.20;100.00;101316.28;2104613;27;46200;-60
2023/09/26 04:20:12;;;;;;;;;6.00;6.00;;;;;22.20;100.00;101317.16;2104830;27;46079;-61
2023/09/26 04:21:13;;;;;;;;;7.00;6.50;;;;;22.18;100.00;101310.09;2101116;27;46889;-61
2023/09/26 04:22:13;;;;;;;;;8.00;8.00;;;;;22.18;100.00;101316.38;2103162;27;46792;-60
2023/09/26 04:23:13;;;;;;;;;9.67;8.33;;;;;22.18;100.00;101316.38;2104275;27;46979;-61
2023/09/26 04:24:14;;;;;;;;;10.33;8.00;;;;;22.17;100.00;101311.06;2104385;27;46799;-60
2023/09/26 04:25:15;;;;;;;;;7.75;7.25;;;;;22.19;100.00;101309.16;2107155;27;46410;-61
2023/09/26 04:26:17;;;;;;;;;6.33;6.33;;;;;22.19;100.00;101311.84;2103533;28;46609;-61
2023/09/26 04:27:17;;;;;;;;;5.75;5.25;;;;;22.18;100.00;101307.41;2095762;28;47052;-61
2023/09/26 04:28:18;;;;;;;;;7.67;7.67;;;;;22.20;100.00;101313.59;2104372;27;46494;-60
2023/09/26 04:29:19;;;;;;;;;7.00;7.00;;;;;22.18;100.00;101307.41;2104957;27;46276;-60
2023/09/26 04:30:20;;;;;;;;;9.25;9.25;;;;;22.18;100.00;101310.09;2112094;27;45500;-61
2023/09/26 04:31:20;;;;;;;;;9.67;8.33;;;;;22.15;100.00;101308.47;2113213;27;46615;-60
2023/09/26 04:32:20;;;;;;;;;9.67;9.67;;;;;22.14;100.00;101308.56;2112296;27;46806;-60
2023/09/26 04:33:21;;;;;;;;;6.33;6.33;;;;;22.15;100.00;101307.59;2107284;27;45828;-60
2023/09/26 04:34:22;;;;;;;;;8.00;7.33;;;;;22.17;100.00;101311.06;2099182;28;46202;-60
2023/09/26 04:35:22;;;;;;;;;8.75;7.75;;;;;22.14;100.00;101305.88;2103922;27;46636;-61
2023/09/26 04:36:23;;;;;;;;;9.33;8.33;;;;;22.16;100.00;101306.63;2102206;27;46507;-60
2023/09/26 04:37:23;;;;;;;;;8.67;8.00;;;;;22.16;100.00;101314.75;2104509;27;46266;-60
2023/09/26 04:38:24;;;;;;;;;6.00;6.00;;;;;22.16;100.00;101312.03;2104262;27;46704;-60
2023/09/26 04:39:25;;;;;;;;;7.00;7.00;;;;;22.16;100.00;101321.03;2104563;27;46559;-60
2023/09/26 04:40:25;;;;;;;;;7.67;7.67;;;;;22.14;100.00;101311.28;2104216;27;46410;-60